This is the latest recevied weather packets stored in our database for station/object K7MT-WX. If no packets are shown the sender has not sent any weather packets the latest 10 day(s).
| Time | Temp. | Humidity | Pressure | Rain* | Wind** | Luminosity | Snow |
|---|---|---|---|---|---|---|---|
| 1778147862 | 10° C | 79% | 1013.3 hPa | 1.52 mm | - | - | - |
| 1778146962 | 12.22° C | 69% | 1012.8 hPa | 0 mm | - | - | - |
| 1778146063 | 10.56° C | 80% | 1012 hPa | 0 mm | - | - | - |
| 1778145162 | 10° C | 81% | 1011 hPa | 0 mm | - | - | - |
| 1778144262 | 11.11° C | 76% | 1010.6 hPa | 0 mm | - | - | - |
| 1778143332 | 10.56° C | 77% | 1010.6 hPa | 0 mm | - | - | - |
| 1778142402 | 11.11° C | 74% | 1010.5 hPa | 0 mm | - | - | - |
| 1778141472 | 11.67° C | 72% | 1010.5 hPa | 0 mm | - | - | - |
| 1778140542 | 11.67° C | 70% | 1010.4 hPa | 0 mm | - | - | - |
| 1778139612 | 12.78° C | 66% | 1010.2 hPa | 0 mm | - | - | - |
| 1778138682 | 12.78° C | 64% | 1010.2 hPa | 0 mm | - | - | - |
| 1778137752 | 12.78° C | 63% | 1010.3 hPa | 0 mm | - | - | - |
| 1778136822 | 13.33° C | 62% | 1010.4 hPa | 0.25 mm | - | - | - |
| 1778135922 | 13.33° C | 62% | 1010.2 hPa | 0.25 mm | - | - | - |
| 1778135022 | 13.89° C | 59% | 1010.2 hPa | 0.25 mm | - | - | - |
| 1778134122 | 14.44° C | 57% | 1010.9 hPa | 0.25 mm | - | - | - |
| 1778133222 | 14.44° C | 61% | 1011 hPa | 0 mm | - | - | - |
| 1778132322 | 15° C | 58% | 1010.7 hPa | 0 mm | - | - | - |
| 1778131422 | 15.56° C | 54% | 1010.4 hPa | 0 mm | - | - | - |
| 1778130522 | 15.56° C | 49% | 1011 hPa | 0 mm | - | - | - |
| 1778129622 | 16.11° C | 47% | 1010.8 hPa | 0 mm | - | - | - |
| 1778128722 | 16.11° C | 48% | 1010.8 hPa | 0 mm | - | - | - |
| 1778127822 | 16.67° C | 44% | 1010.4 hPa | 0 mm | - | - | - |
| 1778126923 | 16.67° C | 44% | 1010.1 hPa | 0 mm | - | - | - |
| 1778126022 | 17.22° C | 43% | 1010.1 hPa | 0 mm | - | - | - |
* Rain latest hour (hover to see other rain measurements)
** Current wind speed in m/s (hover to see current wind gust speed)